Terminal Aerodrome Forecast
Issued by NWS North Platte, NE

Home | Current Version | Previous Version | Text Only | Print | Product List | Glossary On
Versions: 1 2 3 4 5 6 7 8 9 10 11 12 13 14 15 16 17 18 19 20 21 22 23 24 25 26 27
000
FTUS43 KLBF 030500 AAA
TAFLBF
TAF AMD
KLBF 030549Z 0306/0406 15010KT P6SM SKC
     FM031000 VRB05KT 5SM BR OVC011
      TEMPO 0313/0315 SCT011
     FM031500 20007KT P6SM SCT011
     FM031900 18010G20KT P6SM SKC
     FM040100 15009KT P6SM SKC=

USA.gov is the U.S. government's official web portal to all federal, state and local government web resources and services.